Time;durP1;ratioP1;P1;durP2;ratioP2;P2;SDS_P1;SDS_P2;PMS_P1;PMS_P2;Temp;Humidity;BMP_temperature;BMP_pressure;BME280_temperature;BME280_humidity;BME280_pressure;Samples;Min_cycle;Max_cycle;Signal;HPM_P1;HPM_P2
2022/04/15 00:01:40;;;;;;;8.25;5.07;;;13.60;99.90;;;;;;5052527;28;20021;-48
2022/04/15 00:04:05;;;;;;;5.45;4.93;;;13.50;99.90;;;;;;5052554;28;20032;-47
2022/04/15 00:06:32;;;;;;;9.48;6.10;;;13.50;99.90;;;;;;5052568;28;20431;-47
2022/04/15 00:08:58;;;;;;;10.90;6.47;;;13.40;99.90;;;;;;5051918;28;20078;-49
2022/04/15 00:11:24;;;;;;;10.70;5.90;;;13.30;99.90;;;;;;5052192;28;20036;-46
2022/04/15 00:13:49;;;;;;;9.35;7.47;;;13.30;99.90;;;;;;5052294;28;20061;-47
2022/04/15 00:16:15;;;;;;;11.50;7.50;;;13.30;99.90;;;;;;5052345;28;20074;-46
2022/04/15 00:18:41;;;;;;;12.07;7.28;;;13.20;99.90;;;;;;5051830;28;20063;-46
2022/04/15 00:21:07;;;;;;;8.98;6.95;;;13.20;99.90;;;;;;5033988;28;20025;-49
2022/04/15 00:23:34;;;;;;;11.20;7.15;;;13.10;99.90;;;;;;5052186;28;20043;-46
2022/04/15 00:26:01;;;;;;;7.63;6.03;;;13.00;99.90;;;;;;5052628;28;20028;-49
2022/04/15 00:28:27;;;;;;;12.52;7.68;;;13.00;99.90;;;;;;5051648;28;20017;-47
2022/04/15 00:30:53;;;;;;;10.38;6.53;;;12.90;99.90;;;;;;5052401;28;20021;-43
2022/04/15 00:33:18;;;;;;;12.02;7.40;;;12.90;99.90;;;;;;5051769;28;20044;-50
2022/04/15 00:35:44;;;;;;;9.32;6.90;;;12.90;99.90;;;;;;5051919;28;20056;-45
2022/04/15 00:38:09;;;;;;;9.32;6.07;;;12.80;99.90;;;;;;5051634;28;20468;-48
2022/04/15 00:40:35;;;;;;;6.57;5.95;;;12.80;99.90;;;;;;5050816;28;20032;-46
2022/04/15 00:43:01;;;;;;;9.05;6.90;;;12.80;99.90;;;;;;5051876;28;20024;-50
2022/04/15 00:45:27;;;;;;;8.20;6.95;;;12.70;99.90;;;;;;5051431;28;20052;-45
2022/04/15 00:47:57;;;;;;;6.50;5.82;;;12.70;99.90;;;;;;5051435;28;20024;-48
2022/04/15 00:50:29;;;;;;;9.80;6.05;;;12.70;99.90;;;;;;5051730;28;20104;-48
2022/04/15 00:52:59;;;;;;;87.32;56.92;;;12.70;99.90;;;;;;5051611;28;20060;-50
2022/04/15 00:55:26;;;;;;;91.40;60.35;;;12.70;99.90;;;;;;5052027;28;20021;-46
2022/04/15 00:57:58;;;;;;;40.67;25.02;;;12.60;99.90;;;;;;5050948;28;20029;-48
2022/04/15 01:00:26;;;;;;;12.05;8.45;;;12.60;99.90;;;;;;5051330;28;20497;-47
2022/04/15 01:02:52;;;;;;;9.93;7.95;;;12.60;99.90;;;;;;5050065;28;20039;-48
2022/04/15 01:05:18;;;;;;;9.40;7.28;;;12.60;99.90;;;;;;5051424;28;20051;-49
2022/04/15 01:07:49;;;;;;;8.23;6.10;;;12.50;99.90;;;;;;5051308;28;20033;-47
2022/04/15 01:10:15;;;;;;;9.88;7.05;;;12.50;99.90;;;;;;5051290;28;20064;-47
2022/04/15 01:12:51;;;;;;;8.00;7.15;;;12.40;99.90;;;;;;5051243;28;20025;-45
2022/04/15 01:15:18;;;;;;;8.88;7.75;;;12.40;99.90;;;;;;5051551;28;20361;-45
2022/04/15 01:17:43;;;;;;;9.73;7.05;;;12.40;99.90;;;;;;5051166;28;20059;-48
2022/04/15 01:20:10;;;;;;;7.50;6.70;;;12.40;99.90;;;;;;5051453;28;20032;-44
2022/04/15 01:23:09;;;;;;;9.77;6.63;;;12.30;99.90;;;;;;5051143;28;20025;-48
2022/04/15 01:25:35;;;;;;;10.27;7.28;;;12.30;99.90;;;;;;5044606;28;20125;-49
2022/04/15 01:28:01;;;;;;;9.77;6.68;;;12.30;99.90;;;;;;5050935;28;20083;-48
2022/04/15 01:30:26;;;;;;;9.18;7.10;;;12.30;99.90;;;;;;5033359;28;20021;-49
2022/04/15 01:32:52;;;;;;;9.73;6.88;;;12.30;99.90;;;;;;5051183;28;20029;-48
2022/04/15 01:35:19;;;;;;;11.20;7.35;;;12.30;99.90;;;;;;5051138;28;20029;-46
2022/04/15 01:37:46;;;;;;;12.50;7.78;;;12.20;99.90;;;;;;5050467;28;20062;-45
2022/04/15 01:40:13;;;;;;;13.10;8.13;;;12.20;99.90;;;;;;5033522;28;20029;-51
2022/04/15 01:42:40;;;;;;;8.88;7.43;;;12.20;99.90;;;;;;5051002;28;20033;-49
2022/04/15 01:45:07;;;;;;;13.88;8.95;;;12.20;99.90;;;;;;5051123;28;20100;-50
2022/04/15 01:47:33;;;;;;;8.15;7.07;;;12.20;99.90;;;;;;5050594;28;20048;-47
2022/04/15 01:49:59;;;;;;;9.18;7.75;;;12.10;99.90;;;;;;5050614;28;20388;-49
2022/04/15 01:52:24;;;;;;;13.30;7.18;;;12.20;99.90;;;;;;5054316;28;20025;-46
2022/04/15 01:54:50;;;;;;;10.55;7.68;;;12.10;99.90;;;;;;5055155;28;20028;-50
2022/04/15 01:57:16;;;;;;;8.02;7.03;;;12.00;99.90;;;;;;5054595;28;20106;-51
2022/04/15 01:59:42;;;;;;;8.70;7.72;;;12.00;99.90;;;;;;5054812;28;20020;-46
2022/04/15 02:02:08;;;;;;;8.38;7.47;;;12.00;99.90;;;;;;5054720;28;20036;-48
2022/04/15 02:04:34;;;;;;;7.82;6.63;;;12.00;99.90;;;;;;5054709;28;20040;-48
2022/04/15 02:07:00;;;;;;;9.45;7.60;;;12.00;99.90;;;;;;5054130;28;20033;-46
2022/04/15 02:09:25;;;;;;;10.25;8.30;;;12.00;99.90;;;;;;5054606;28;20493;-45
2022/04/15 02:11:51;;;;;;;11.07;8.18;;;12.00;99.90;;;;;;5054728;28;20057;-47
2022/04/15 02:14:18;;;;;;;9.68;8.00;;;12.00;99.90;;;;;;5054601;28;20419;-46
2022/04/15 02:16:45;;;;;;;15.43;9.18;;;11.90;99.90;;;;;;5054273;28;20024;-47
2022/04/15 02:19:11;;;;;;;9.68;8.57;;;11.90;99.90;;;;;;5053925;28;20115;-47
2022/04/15 02:21:36;;;;;;;9.52;7.40;;;11.90;99.90;;;;;;5054798;28;20080;-44
2022/04/15 02:24:02;;;;;;;14.23;8.77;;;11.80;99.90;;;;;;5054499;28;20029;-46
2022/04/15 02:26:28;;;;;;;15.93;9.73;;;11.70;99.90;;;;;;5054454;28;20028;-48
2022/04/15 02:28:53;;;;;;;13.02;9.15;;;11.70;99.90;;;;;;5053576;28;20250;-44
2022/04/15 02:31:19;;;;;;;17.67;8.80;;;11.70;99.90;;;;;;5054426;28;20540;-48
2022/04/15 02:33:45;;;;;;;9.30;7.72;;;11.70;99.90;;;;;;5054340;28;20092;-47
2022/04/15 02:36:10;;;;;;;13.45;8.60;;;11.70;99.90;;;;;;5054224;28;20029;-50
2022/04/15 02:38:36;;;;;;;9.48;7.00;;;11.60;99.90;;;;;;5053890;28;20147;-48
2022/04/15 02:41:04;;;;;;;11.05;6.88;;;11.60;99.90;;;;;;5053831;28;20036;-50
2022/04/15 02:43:33;;;;;;;11.50;7.80;;;11.50;99.90;;;;;;5053968;28;20025;-45
2022/04/15 02:46:00;;;;;;;7.80;7.00;;;11.50;99.90;;;;;;5054009;28;20021;-47
2022/04/15 02:48:26;;;;;;;8.20;7.35;;;11.50;99.90;;;;;;5053455;28;20029;-47
2022/04/15 02:50:53;;;;;;;10.27;6.70;;;11.50;99.90;;;;;;5053891;28;20048;-47
2022/04/15 02:53:19;;;;;;;9.13;7.68;;;11.50;99.90;;;;;;5053940;28;20032;-46
2022/04/15 02:55:44;;;;;;;14.27;7.45;;;11.40;99.90;;;;;;5053815;28;20025;-48
2022/04/15 02:58:10;;;;;;;10.82;7.22;;;11.40;99.90;;;;;;5053529;28;20385;-46
2022/04/15 03:00:35;;;;;;;9.00;7.75;;;11.40;99.90;;;;;;5053650;28;20031;-47
2022/04/15 03:03:01;;;;;;;11.43;8.48;;;11.40;99.90;;;;;;5052389;28;20402;-48
2022/04/15 03:05:27;;;;;;;9.18;7.47;;;11.30;99.90;;;;;;5035697;28;20541;-48
2022/04/15 03:07:52;;;;;;;9.65;7.55;;;11.30;99.90;;;;;;5053652;28;20032;-46
2022/04/15 03:10:18;;;;;;;10.48;7.03;;;11.30;99.90;;;;;;5054660;28;20021;-47
2022/04/15 03:12:43;;;;;;;13.05;6.50;;;11.30;99.90;;;;;;5053566;28;20080;-48
2022/04/15 03:15:09;;;;;;;17.30;7.75;;;11.20;99.90;;;;;;5053446;28;20476;-49
2022/04/15 03:17:35;;;;;;;14.32;8.50;;;11.20;99.90;;;;;;5035077;28;20036;-51
2022/04/15 03:20:02;;;;;;;15.30;8.23;;;11.20;99.90;;;;;;5053478;28;20400;-52
2022/04/15 03:22:29;;;;;;;7.78;6.97;;;11.20;99.90;;;;;;5053383;28;20396;-46
2022/04/15 03:24:54;;;;;;;8.40;6.40;;;11.10;99.90;;;;;;5053406;28;20116;-48
2022/04/15 03:27:20;;;;;;;9.73;6.32;;;11.00;99.90;;;;;;5052933;28;20108;-47
2022/04/15 03:29:45;;;;;;;7.10;6.50;;;11.00;99.90;;;;;;5053155;28;20060;-49
2022/04/15 03:32:11;;;;;;;10.73;6.75;;;11.00;99.90;;;;;;5053174;28;20477;-46
2022/04/15 03:34:37;;;;;;;9.57;7.03;;;11.00;99.90;;;;;;5053207;28;20527;-46
2022/04/15 03:37:03;;;;;;;8.55;6.43;;;11.00;99.90;;;;;;5052937;28;20056;-49
2022/04/15 03:39:29;;;;;;;7.40;6.70;;;11.00;99.90;;;;;;5053203;28;20104;-46
2022/04/15 03:41:54;;;;;;;8.50;6.22;;;11.00;99.90;;;;;;5052924;28;20445;-45
2022/04/15 03:44:20;;;;;;;6.80;6.00;;;11.00;99.90;;;;;;5053005;28;20472;-45
2022/04/15 03:46:45;;;;;;;8.95;6.32;;;11.00;99.90;;;;;;5052556;28;20029;-46
2022/04/15 03:49:11;;;;;;;8.25;7.10;;;10.90;99.90;;;;;;5052620;28;20040;-47
2022/04/15 03:51:36;;;;;;;8.90;5.65;;;10.90;99.90;;;;;;5052939;28;20079;-46
2022/04/15 03:54:02;;;;;;;8.52;5.80;;;10.90;99.90;;;;;;5052769;28;20025;-47
2022/04/15 03:56:28;;;;;;;10.52;6.03;;;10.80;99.90;;;;;;5052737;28;20401;-46
2022/04/15 03:58:53;;;;;;;6.60;6.00;;;10.80;99.90;;;;;;5052595;28;20463;-45
2022/04/15 04:01:19;;;;;;;7.22;5.95;;;10.70;99.90;;;;;;5052536;28;20043;-47
2022/04/15 04:03:45;;;;;;;7.28;6.30;;;10.70;99.90;;;;;;5052518;28;20025;-46
2022/04/15 04:06:10;;;;;;;8.27;6.20;;;10.70;99.90;;;;;;5052636;28;20036;-47
2022/04/15 04:08:36;;;;;;;6.72;6.10;;;10.70;99.90;;;;;;5052112;28;20151;-46
2022/04/15 04:11:01;;;;;;;9.50;6.38;;;10.60;99.90;;;;;;5052594;28;20025;-45
2022/04/15 04:13:27;;;;;;;11.38;8.30;;;10.60;99.90;;;;;;5052206;28;20295;-47
2022/04/15 04:15:52;;;;;;;12.15;6.22;;;10.70;99.90;;;;;;5052364;28;20099;-47
2022/04/15 04:18:20;;;;;;;8.82;7.35;;;10.60;99.90;;;;;;5051761;28;20037;-51
2022/04/15 04:20:47;;;;;;;10.30;6.43;;;10.60;99.90;;;;;;5052139;28;20048;-46
2022/04/15 04:23:13;;;;;;;14.10;7.72;;;10.60;99.90;;;;;;5052305;28;20404;-47
2022/04/15 04:25:39;;;;;;;8.23;6.47;;;10.60;99.90;;;;;;5052233;28;20036;-49
2022/04/15 04:28:04;;;;;;;8.73;6.63;;;10.50;99.90;;;;;;5051783;28;20067;-48
2022/04/15 04:30:30;;;;;;;10.23;7.30;;;10.60;99.90;;;;;;5051948;28;20028;-50
2022/04/15 04:32:58;;;;;;;9.68;6.85;;;10.60;99.90;;;;;;5052079;28;20079;-46
2022/04/15 04:35:23;;;;;;;10.23;7.05;;;10.60;99.90;;;;;;5051969;28;20108;-46
2022/04/15 04:37:49;;;;;;;7.75;6.88;;;10.60;99.90;;;;;;5051695;28;20100;-46
2022/04/15 04:40:15;;;;;;;10.07;7.68;;;10.60;99.90;;;;;;5051840;28;20028;-49
2022/04/15 04:42:44;;;;;;;7.05;6.35;;;10.50;99.90;;;;;;5051763;28;20060;-50
2022/04/15 04:45:13;;;;;;;8.80;7.53;;;10.60;99.90;;;;;;5051798;28;20082;-47
2022/04/15 04:47:40;;;;;;;10.32;7.78;;;10.40;99.90;;;;;;5051339;28;20082;-47
2022/04/15 04:50:08;;;;;;;11.65;6.35;;;10.40;99.90;;;;;;5051676;28;20013;-50
2022/04/15 04:52:36;;;;;;;9.63;6.88;;;10.30;99.90;;;;;;5051758;28;20045;-47
2022/04/15 04:55:03;;;;;;;9.95;6.40;;;10.30;99.90;;;;;;5051588;28;20031;-46
2022/04/15 04:57:29;;;;;;;11.18;6.60;;;10.30;99.90;;;;;;5051202;28;20041;-46
2022/04/15 04:59:56;;;;;;;9.65;6.28;;;10.30;99.90;;;;;;5051428;28;20028;-49
2022/04/15 05:02:22;;;;;;;8.05;6.88;;;10.30;99.90;;;;;;5051549;28;20055;-48
2022/04/15 05:04:47;;;;;;;8.73;6.25;;;10.40;99.90;;;;;;5050838;28;20029;-47
2022/04/15 05:07:14;;;;;;;8.98;6.68;;;10.40;99.90;;;;;;5051731;28;20032;-48
2022/04/15 05:09:41;;;;;;;22.33;12.27;;;10.40;99.90;;;;;;5051564;28;20048;-48
2022/04/15 05:12:08;;;;;;;10.23;7.30;;;10.50;99.90;;;;;;5052487;28;20028;-46
2022/04/15 05:14:33;;;;;;;12.57;8.70;;;10.50;99.90;;;;;;5050984;28;20040;-45
2022/04/15 05:16:59;;;;;;;14.70;9.10;;;10.60;99.90;;;;;;5051051;28;20388;-46
2022/04/15 05:19:24;;;;;;;12.23;8.00;;;10.70;99.90;;;;;;5050842;28;20025;-49
2022/04/15 05:21:50;;;;;;;10.25;7.80;;;10.80;99.90;;;;;;5051149;28;20518;-44
2022/04/15 05:24:15;;;;;;;12.65;8.57;;;11.00;99.90;;;;;;5050954;28;20017;-49
2022/04/15 05:26:41;;;;;;;9.05;6.80;;;11.20;99.90;;;;;;5055263;28;20110;-45
2022/04/15 05:29:08;;;;;;;7.82;6.57;;;11.30;99.90;;;;;;5057497;28;20036;-47
2022/04/15 05:31:33;;;;;;;13.30;7.25;;;11.40;99.90;;;;;;5057475;28;20460;-50
2022/04/15 05:34:00;;;;;;;10.68;7.47;;;11.40;99.90;;;;;;5054139;28;20056;-46
2022/04/15 05:36:26;;;;;;;9.35;8.40;;;11.40;99.90;;;;;;5057615;28;20032;-47
2022/04/15 05:38:52;;;;;;;14.82;9.65;;;11.50;99.90;;;;;;5057454;28;20025;-47
2022/04/15 05:41:17;;;;;;;13.25;8.52;;;11.70;99.90;;;;;;5057741;28;20091;-45
2022/04/15 05:43:43;;;;;;;8.57;7.18;;;11.80;99.90;;;;;;5057658;28;20032;-45
2022/04/15 05:46:10;;;;;;;9.07;8.15;;;11.90;99.90;;;;;;5057786;28;20029;-46
2022/04/15 05:48:36;;;;;;;9.30;7.47;;;12.00;99.90;;;;;;5057267;28;20033;-47
2022/04/15 05:51:02;;;;;;;8.00;6.78;;;12.10;99.90;;;;;;5057580;28;20017;-45
2022/04/15 05:53:28;;;;;;;9.35;6.25;;;12.20;99.90;;;;;;5057564;28;20025;-47
2022/04/15 05:55:53;;;;;;;8.40;6.35;;;12.30;99.90;;;;;;5057740;28;20021;-50
2022/04/15 05:58:19;;;;;;;8.88;6.60;;;12.40;99.90;;;;;;5057374;28;20108;-50
2022/04/15 06:00:46;;;;;;;7.63;6.32;;;12.40;99.90;;;;;;5057523;28;20041;-45
2022/04/15 06:03:12;;;;;;;7.43;6.38;;;12.60;99.90;;;;;;5057663;28;20025;-53
2022/04/15 06:05:37;;;;;;;7.03;6.32;;;12.80;99.90;;;;;;5057729;28;20396;-46
2022/04/15 06:08:03;;;;;;;7.15;6.20;;;13.00;99.90;;;;;;5056885;28;20444;-46
2022/04/15 06:10:30;;;;;;;7.07;6.38;;;13.30;99.90;;;;;;5056762;28;20043;-45
2022/04/15 06:13:04;;;;;;;8.77;7.10;;;13.70;99.90;;;;;;5057571;28;20039;-46
2022/04/15 06:15:33;;;;;;;10.90;7.38;;;13.90;99.90;;;;;;5057554;28;20025;-47
2022/04/15 06:18:00;;;;;;;8.23;7.15;;;14.20;99.90;;;;;;5057196;28;20407;-45
2022/04/15 06:20:29;;;;;;;16.20;8.15;;;14.50;99.90;;;;;;5057376;28;20369;-45
2022/04/15 06:22:56;;;;;;;9.15;7.07;;;14.60;99.90;;;;;;5057499;28;20400;-45
2022/04/15 06:25:22;;;;;;;14.20;9.70;;;15.00;99.90;;;;;;5057311;28;20073;-44
2022/04/15 06:27:48;;;;;;;13.48;12.05;;;15.30;99.90;;;;;;5057105;28;20055;-45
2022/04/15 06:30:13;;;;;;;12.30;11.00;;;15.50;99.90;;;;;;5057228;28;20020;-42
2022/04/15 06:32:39;;;;;;;16.33;14.05;;;15.60;99.90;;;;;;5057409;28;20017;-45
2022/04/15 06:35:05;;;;;;;19.20;16.95;;;15.70;99.90;;;;;;5057369;28;20031;-44
2022/04/15 06:37:31;;;;;;;20.85;16.83;;;15.40;99.90;;;;;;5055291;28;20116;-45
2022/04/15 06:39:57;;;;;;;24.35;18.88;;;15.40;99.90;;;;;;5054131;28;20100;-45
2022/04/15 06:42:27;;;;;;;27.15;20.48;;;15.40;99.90;;;;;;5054101;28;20083;-45
2022/04/15 06:44:53;;;;;;;27.23;20.58;;;15.60;99.90;;;;;;5054089;28;20388;-47
2022/04/15 06:47:19;;;;;;;26.48;20.42;;;15.70;99.90;;;;;;5053802;28;20029;-45
2022/04/15 06:49:47;;;;;;;22.38;18.75;;;15.80;99.90;;;;;;5053923;28;20029;-45
2022/04/15 06:52:17;;;;;;;21.05;18.85;;;16.00;99.90;;;;;;5054269;28;20468;-47
2022/04/15 06:54:44;;;;;;;22.48;18.58;;;16.30;99.90;;;;;;5053871;28;20062;-47
2022/04/15 06:57:09;;;;;;;22.25;19.48;;;16.60;99.90;;;;;;5053700;28;20017;-45
2022/04/15 06:59:36;;;;;;;22.08;19.23;;;17.10;99.90;;;;;;5035899;28;20533;-47
2022/04/15 07:02:01;;;;;;;26.23;18.95;;;17.40;99.90;;;;;;5053903;28;20029;-47
2022/04/15 07:04:28;;;;;;;20.73;17.17;;;17.70;99.90;;;;;;5053654;28;20143;-45
2022/04/15 07:06:55;;;;;;;18.48;16.30;;;17.90;99.90;;;;;;5053439;28;20053;-45
2022/04/15 07:09:20;;;;;;;19.95;17.25;;;18.30;99.40;;;;;;5053243;28;20095;-43
2022/04/15 07:11:46;;;;;;;19.58;17.05;;;18.50;99.00;;;;;;5053330;28;20067;-48
2022/04/15 07:14:11;;;;;;;19.73;15.73;;;18.80;98.40;;;;;;5053611;28;20473;-46
2022/04/15 07:16:37;;;;;;;19.13;15.25;;;18.90;97.40;;;;;;5051855;28;20048;-50
2022/04/15 07:19:04;;;;;;;16.42;14.73;;;19.00;97.50;;;;;;5029914;28;20095;-50
2022/04/15 07:21:41;;;;;;;15.20;13.63;;;19.20;97.20;;;;;;5032105;28;20082;-49
2022/04/15 07:24:07;;;;;;;16.00;13.75;;;19.30;96.30;;;;;;5033884;28;20400;-47
2022/04/15 07:26:33;;;;;;;23.15;14.93;;;19.30;96.20;;;;;;5033189;28;20030;-48
2022/04/15 07:28:58;;;;;;;20.10;16.15;;;19.50;96.30;;;;;;5032909;28;20034;-48
2022/04/15 07:31:24;;;;;;;19.38;14.35;;;19.60;96.10;;;;;;5051417;28;20524;-46
2022/04/15 07:33:51;;;;;;;15.98;13.75;;;19.80;95.40;;;;;;5053369;28;20049;-47
2022/04/15 07:39:06;;;;;;;16.00;12.10;;;20.00;95.80;;;;;;5055945;28;20029;-49
2022/04/15 07:41:32;;;;;;;19.38;14.18;;;20.20;94.70;;;;;;5054342;28;20036;-48
2022/04/15 07:43:58;;;;;;;16.17;12.00;;;20.10;94.70;;;;;;5052371;28;20027;-46
2022/04/15 07:46:23;;;;;;;18.25;13.30;;;20.40;94.00;;;;;;5052500;28;20029;-46
2022/04/15 07:48:49;;;;;;;13.75;12.30;;;20.90;93.40;;;;;;5052175;28;20040;-45
2022/04/15 07:51:14;;;;;;;17.25;11.88;;;21.50;92.30;;;;;;5052076;28;20488;-47
2022/04/15 07:53:40;;;;;;;15.30;11.40;;;21.60;91.70;;;;;;5053286;28;20017;-49
2022/04/15 07:56:05;;;;;;;13.82;11.32;;;21.80;91.60;;;;;;5052619;28;20100;-48
2022/04/15 07:58:31;;;;;;;16.95;11.35;;;22.20;91.40;;;;;;5051672;28;20062;-47
2022/04/15 08:00:59;;;;;;;14.23;10.80;;;22.70;90.70;;;;;;5052608;28;20057;-48
2022/04/15 08:03:26;;;;;;;30.60;22.33;;;22.70;88.00;;;;;;5052855;28;20044;-47
2022/04/15 08:05:51;;;;;;;14.63;10.65;;;23.20;87.10;;;;;;5052776;28;20031;-43
2022/04/15 08:08:17;;;;;;;9.85;8.18;;;22.80;86.80;;;;;;5050869;28;20028;-48
2022/04/15 08:10:43;;;;;;;12.45;11.18;;;23.10;85.70;;;;;;5051914;28;20045;-46
2022/04/15 08:13:08;;;;;;;16.75;10.93;;;23.40;85.60;;;;;;5051759;28;20495;-53
2022/04/15 08:15:34;;;;;;;10.27;9.20;;;23.60;85.40;;;;;;5052327;28;20028;-47
2022/04/15 08:18:00;;;;;;;11.77;10.07;;;24.00;84.50;;;;;;5051616;28;20408;-47
2022/04/15 08:20:26;;;;;;;16.73;13.63;;;24.10;83.00;;;;;;5051873;28;20036;-46
2022/04/15 08:22:51;;;;;;;12.15;10.63;;;24.20;82.80;;;;;;5052369;28;20524;-48
2022/04/15 08:25:17;;;;;;;16.73;10.15;;;24.50;82.90;;;;;;5051891;28;20507;-46
2022/04/15 08:27:43;;;;;;;16.73;10.32;;;24.60;80.40;;;;;;5051352;28;20036;-43
2022/04/15 08:30:09;;;;;;;12.65;9.13;;;24.40;80.90;;;;;;5052184;28;20057;-46
2022/04/15 08:32:34;;;;;;;10.32;9.27;;;24.90;77.20;;;;;;5052089;28;20025;-46
2022/04/15 08:35:01;;;;;;;11.50;10.43;;;24.60;77.90;;;;;;5052158;28;20024;-46
2022/04/15 08:37:27;;;;;;;12.55;9.73;;;24.50;78.20;;;;;;5051837;28;20028;-46
2022/04/15 08:39:53;;;;;;;13.20;9.52;;;24.70;78.10;;;;;;5051942;28;20029;-51
2022/04/15 08:42:20;;;;;;;13.00;9.38;;;25.00;77.60;;;;;;5051703;28;20434;-51
2022/04/15 08:44:49;;;;;;;11.95;9.48;;;25.70;76.20;;;;;;5051704;28;20120;-51
2022/04/15 08:47:15;;;;;;;7.18;6.28;;;25.90;75.20;;;;;;5050761;28;20024;-54
2022/04/15 08:49:40;;;;;;;8.73;7.85;;;26.40;73.60;;;;;;5051765;28;20075;-46
2022/04/15 08:52:08;;;;;;;5.35;4.75;;;26.00;72.20;;;;;;5052017;28;20496;-49
2022/04/15 08:54:34;;;;;;;5.32;4.82;;;26.40;70.50;;;;;;5051866;28;20028;-47
2022/04/15 08:57:00;;;;;;;5.97;5.03;;;26.60;68.50;;;;;;5051342;28;20408;-52
2022/04/15 08:59:25;;;;;;;8.30;6.47;;;26.90;68.10;;;;;;5051842;28;20476;-48
2022/04/15 09:01:50;;;;;;;5.88;5.28;;;26.60;67.40;;;;;;5050916;28;20033;-49
2022/04/15 09:04:18;;;;;;;4.78;3.00;;;26.40;67.50;;;;;;5051742;28;20052;-47
2022/04/15 09:06:44;;;;;;;3.47;2.05;;;24.90;66.00;;;;;;5051728;28;20033;-48
2022/04/15 09:09:14;;;;;;;4.15;1.75;;;24.70;68.00;;;;;;5066561;23;20028;-57
2022/04/15 09:11:41;;;;;;;2.45;1.27;;;24.60;67.40;;;;;;5049984;28;20520;-52
2022/04/15 09:14:12;;;;;;;3.47;1.10;;;24.30;66.80;;;;;;5051159;28;20018;-46
2022/04/15 09:16:42;;;;;;;2.40;1.25;;;23.70;67.00;;;;;;5051524;28;20025;-52
2022/04/15 09:19:09;;;;;;;2.30;1.08;;;23.60;66.60;;;;;;5051006;28;20029;-48
2022/04/15 09:21:35;;;;;;;3.15;1.05;;;22.30;67.90;;;;;;5051421;28;20402;-51
2022/04/15 09:24:02;;;;;;;1.17;0.90;;;22.10;70.70;;;;;;5049138;28;20028;-47
2022/04/15 09:26:27;;;;;;;3.58;1.52;;;22.40;69.70;;;;;;5046015;28;20424;-46
2022/04/15 09:28:54;;;;;;;2.33;1.20;;;22.10;68.60;;;;;;5051011;28;20043;-48
2022/04/15 09:31:21;;;;;;;1.35;0.70;;;21.90;70.50;;;;;;5051252;28;20013;-46
2022/04/15 09:33:54;;;;;;;1.60;1.10;;;22.10;68.70;;;;;;5051541;28;20033;-45
2022/04/15 09:36:29;;;;;;;1.73;1.20;;;22.40;69.70;;;;;;5050993;28;20464;-54
2022/04/15 09:39:14;;;;;;;1.00;0.82;;;21.60;67.00;;;;;;5050844;28;20025;-48
2022/04/15 09:41:48;;;;;;;1.38;1.13;;;21.50;69.80;;;;;;5051130;28;20039;-51
2022/04/15 09:44:13;;;;;;;1.45;0.95;;;21.30;68.40;;;;;;5050413;28;20031;-53
2022/04/15 09:46:44;;;;;;;1.13;1.00;;;21.10;69.60;;;;;;5051047;28;20112;-51
2022/04/15 09:49:10;;;;;;;1.63;0.82;;;21.00;70.30;;;;;;5050873;28;20029;-50
2022/04/15 09:51:47;;;;;;;2.40;1.35;;;20.70;70.80;;;;;;5049796;28;20025;-50
2022/04/15 09:54:28;;;;;;;3.55;0.50;;;20.60;72.70;;;;;;5051022;28;20118;-48
2022/04/15 09:56:57;;;;;;;1.15;0.85;;;21.00;69.50;;;;;;5050683;28;20025;-53
2022/04/15 09:59:24;;;;;;;54.60;37.40;;;21.10;70.20;;;;;;5050802;28;20078;-52
2022/04/15 10:01:58;;;;;;;3.15;1.90;;;21.40;71.30;;;;;;5051257;28;20028;-53
2022/04/15 10:04:25;;;;;;;4.38;1.63;;;21.80;69.90;;;;;;5051036;28;20025;-52
2022/04/15 10:06:52;;;;;;;0.82;0.80;;;22.00;69.50;;;;;;5050763;28;20055;-52
2022/04/15 10:09:17;;;;;;;2.83;1.45;;;22.10;68.50;;;;;;5050707;28;20145;-49
2022/04/15 10:11:45;;;;;;;1.05;0.77;;;22.00;68.10;;;;;;5051518;28;20033;-51
2022/04/15 10:14:12;;;;;;;0.85;0.75;;;22.00;68.70;;;;;;5054727;28;20017;-53
2022/04/15 10:16:39;;;;;;;0.80;0.73;;;22.00;68.80;;;;;;5054640;28;20052;-50
2022/04/15 10:19:06;;;;;;;0.80;0.80;;;21.30;67.80;;;;;;5054068;28;20480;-51
2022/04/15 10:21:37;;;;;;;1.15;0.73;;;20.70;70.40;;;;;;5054303;28;20061;-43
2022/04/15 10:24:04;;;;;;;1.17;0.75;;;20.60;70.80;;;;;;5054886;28;20477;-45
2022/04/15 10:26:35;;;;;;;1.17;0.70;;;20.50;70.60;;;;;;5054133;28;20098;-48
2022/04/15 10:29:03;;;;;;;3.25;1.00;;;20.60;71.00;;;;;;5052405;28;20116;-51
2022/04/15 10:31:46;;;;;;;0.70;0.70;;;20.60;71.60;;;;;;5054520;28;20024;-53
2022/04/15 10:34:18;;;;;;;2.45;0.80;;;20.70;70.20;;;;;;5054165;28;20025;-47
2022/04/15 10:36:52;;;;;;;0.70;0.60;;;20.80;70.60;;;;;;5054010;28;20017;-52
2022/04/15 10:39:28;;;;;;;1.23;1.13;;;20.80;70.00;;;;;;5053912;28;20043;-48
2022/04/15 10:41:57;;;;;;;1.35;0.88;;;20.90;71.50;;;;;;5054091;28;20024;-51
2022/04/15 10:44:26;;;;;;;5.88;1.13;;;20.90;70.90;;;;;;5053812;28;20056;-50
2022/04/15 10:46:51;;;;;;;1.30;0.82;;;20.90;70.70;;;;;;5053845;28;20104;-45
2022/04/15 10:49:23;;;;;;;1.90;0.80;;;20.80;68.70;;;;;;5053500;28;20132;-46
2022/04/15 10:52:02;;;;;;;1.60;0.80;;;20.30;71.40;;;;;;5053924;28;20104;-52
2022/04/15 10:54:36;;;;;;;3.80;1.10;;;20.40;71.30;;;;;;5053690;28;20029;-48
2022/04/15 10:57:11;;;;;;;2.60;1.15;;;20.10;71.10;;;;;;5053535;28;20025;-50
2022/04/15 11:02:24;;;;;;;2.63;1.25;;;19.50;72.80;;;;;;5054488;28;20071;-49
2022/04/15 11:04:51;;;;;;;4.03;1.20;;;19.30;74.60;;;;;;5053697;28;20045;-51
2022/04/15 11:07:24;;;;;;;2.70;0.93;;;19.10;74.70;;;;;;5053368;28;20025;-51
2022/04/15 11:09:50;;;;;;;1.17;1.00;;;19.00;75.70;;;;;;5053302;28;20040;-51
2022/04/15 11:12:29;;;;;;;1.00;0.85;;;19.20;75.70;;;;;;5052099;28;20036;-48
2022/04/15 11:14:54;;;;;;;3.00;1.00;;;19.30;75.70;;;;;;5053723;28;20072;-47
2022/04/15 11:17:38;;;;;;;2.90;1.38;;;19.40;75.00;;;;;;5053290;28;20437;-47
2022/04/15 11:20:08;;;;;;;1.75;1.13;;;19.50;75.90;;;;;;5053202;28;20021;-47
2022/04/15 11:22:39;;;;;;;1.83;1.27;;;19.60;75.70;;;;;;5053339;28;20374;-46
2022/04/15 11:25:10;;;;;;;5.50;1.40;;;19.70;76.70;;;;;;5052357;28;20055;-48
2022/04/15 11:27:39;;;;;;;1.65;1.25;;;19.50;75.50;;;;;;5053507;28;20116;-47
2022/04/15 11:30:10;;;;;;;1.80;1.15;;;19.20;77.00;;;;;;5053967;28;20045;-49
2022/04/15 11:32:48;;;;;;;3.83;1.17;;;19.00;77.00;;;;;;5053557;28;20028;-49
2022/04/15 11:35:33;;;;;;;3.53;1.15;;;18.70;76.30;;;;;;5053233;28;20413;-51
2022/04/15 11:38:03;;;;;;;7.40;2.07;;;18.90;77.30;;;;;;5053152;28;20021;-43
2022/04/15 11:40:34;;;;;;;3.05;1.00;;;19.10;77.10;;;;;;5053157;28;20615;-52
2022/04/15 11:43:00;;;;;;;1.55;0.85;;;19.30;77.10;;;;;;5053390;28;20423;-48
2022/04/15 11:45:37;;;;;;;4.65;1.48;;;19.40;78.20;;;;;;5052908;28;20034;-51
2022/04/15 11:48:22;;;;;;;2.25;1.05;;;19.50;78.00;;;;;;5052737;28;20072;-44
2022/04/15 11:50:53;;;;;;;3.40;0.73;;;19.70;76.70;;;;;;5052998;28;20573;-43
2022/04/15 11:53:19;;;;;;;3.33;1.27;;;19.70;77.20;;;;;;5052879;28;20029;-47
2022/04/15 11:55:50;;;;;;;4.95;1.00;;;19.70;75.10;;;;;;5052943;28;20392;-46
2022/04/15 11:58:16;;;;;;;3.55;0.80;;;19.60;74.50;;;;;;5052534;28;20401;-45
2022/04/15 12:00:41;;;;;;;10.63;7.28;;;19.60;75.80;;;;;;5052964;28;20021;-47
2022/04/15 12:03:12;;;;;;;24.25;17.15;;;19.70;76.10;;;;;;5052801;28;20488;-51
2022/04/15 12:05:37;;;;;;;2.42;1.73;;;19.80;76.30;;;;;;5052649;28;20025;-51
2022/04/15 12:08:05;;;;;;;2.63;0.82;;;19.90;77.30;;;;;;5052392;28;20021;-51
2022/04/15 12:10:31;;;;;;;3.72;1.25;;;19.90;76.50;;;;;;5052139;28;20056;-44
2022/04/15 12:12:56;;;;;;;3.33;1.13;;;19.90;76.20;;;;;;5052909;28;20025;-47
2022/04/15 12:15:25;;;;;;;1.98;0.93;;;19.70;75.40;;;;;;5052228;28;20013;-48
2022/04/15 12:17:52;;;;;;;1.85;0.60;;;19.70;75.50;;;;;;5052188;28;20049;-49
2022/04/15 12:20:18;;;;;;;1.38;0.77;;;19.50;73.00;;;;;;5051931;28;20562;-53
2022/04/15 12:22:49;;;;;;;2.88;1.05;;;19.30;74.40;;;;;;5052170;28;20025;-51
2022/04/15 12:25:17;;;;;;;0.88;0.63;;;19.30;74.60;;;;;;5051979;28;20021;-46
2022/04/15 12:27:44;;;;;;;3.40;1.08;;;19.30;76.20;;;;;;5051741;28;20090;-49
2022/04/15 12:30:10;;;;;;;1.70;0.70;;;19.50;74.10;;;;;;5051149;28;20396;-50
2022/04/15 12:32:36;;;;;;;3.30;1.15;;;19.30;74.80;;;;;;5051711;28;20029;-48
2022/04/15 12:35:02;;;;;;;2.83;0.73;;;19.20;74.30;;;;;;5051130;28;20075;-49
2022/04/15 12:37:35;;;;;;;1.30;1.00;;;19.30;76.00;;;;;;5051506;28;20558;-45
2022/04/15 12:40:04;;;;;;;1.15;1.05;;;19.20;75.90;;;;;;5033329;28;20504;-49
2022/04/15 12:42:31;;;;;;;1.88;1.25;;;19.20;74.80;;;;;;5051868;28;20123;-52
2022/04/15 12:44:58;;;;;;;1.25;1.00;;;19.10;74.40;;;;;;5052115;28;20056;-49
2022/04/15 12:47:26;;;;;;;2.47;0.82;;;19.20;75.80;;;;;;5051983;28;20060;-51